• Join FlightAware (Why Join?)
  • Login
  • US Flag 
06:49AM EDT


 

Airport Tracker/Info


-or-


 

Live Flight TrackerFlight Track Log ✈ TAM3444 ✈ 04-May-2013 ✈ SBGL / GIG - SBBR / BSB

Flight Track Log - Related Links

Times and Time Zones

All times are in EDT time to prevent confusion due to time zone crossing. See the TAM3444 flight status page for this flight to view local times or setup timezone preferences in your user account.

Time Position Orientation Groundspeed Altitude Reporting Facility
EDT Latitude Longitude Course Direction KTS MPH feet Rate Location/Type
06:19AM -22.7390 -43.1580 107° East 234 269 3,000  Level FlightAware
06:19AM -22.7240 -43.1480 32° Northeast 240 276 3,500 2,160 Climbing FlightAware
06:19AM -22.7170 -43.1310 66° East 246 283 4,100 2,580 Climbing FlightAware
06:20AM -22.7160 -43.1130 87° East 243 280 4,800 2,580 Climbing FlightAware
06:20AM -22.7100 -43.0960 69° East 251 289 5,400 2,640 Climbing FlightAware
06:20AM -22.7020 -43.0870 46° Northeast 252 290 5,900 2,640 Climbing FlightAware
06:20AM -22.6860 -43.0830 13° North 249 287 6,500 1,980 Climbing FlightAware
06:21AM -22.6500 -43.0940 344° North 272 313 7,400 1,560 Climbing FlightAware
06:21AM -22.6320 -43.1010 340° North 286 329 7,700 2,220 Climbing FlightAware
06:22AM -22.5990 -43.1140 340° North 288 331 8,900 2,400 Climbing FlightAware
06:22AM -22.5430 -43.1350 341° North 301 346 10,500 1,680 Climbing FlightAware
06:23AM -22.4860 -43.1550 342° North 340 391 11,300 1,620 Climbing FlightAware
06:24AM -22.4260 -43.1770 341° North 346 398 12,700 2,100 Climbing FlightAware
06:24AM -22.3590 -43.2140 333° Northwest 352 405 14,300 1,680 Climbing FlightAware
06:25AM -22.3050 -43.2450 332° Northwest 361 415 15,300 1,620 Climbing FlightAware
06:26AM -22.2300 -43.2880 332° Northwest 370 426 16,800 960 Climbing FlightAware
06:27AM -22.1710 -43.3220 332° Northwest 370 426 16,800  Level FlightAware
06:27AM -22.1190 -43.3520 332° Northwest 370 426 16,800  Level FlightAware
06:28AM -22.0680 -43.3810 332° Northwest 370 426 16,800  Level FlightAware
06:29AM -22.0040 -43.4180 332° Northwest 370 426 16,800  Level FlightAware
06:29AM -21.9520 -43.4470 333° Northwest 370 426 16,800 840 Level FlightAware
06:32AM -21.8283 -43.5420 324° Northwest  Level Estimated
06:33AM -21.7679 -43.5883 325° Northwest  Level Estimated
06:34AM -21.7075 -43.6346 325° Northwest  Level Estimated
06:35AM -21.6472 -43.6809 325° Northwest  Level Estimated
06:36AM -21.5868 -43.7270 325° Northwest  Level Estimated
06:37AM -21.5263 -43.7732 325° Northwest  Level Estimated
06:38AM -21.4659 -43.8193 325° Northwest  Level Estimated
06:39AM -21.4055 -43.8654 325° Northwest  Level Estimated
06:40AM -21.3450 -43.9114 325° Northwest  Level Estimated
06:41AM -21.2845 -43.9574 325° Northwest  Level Estimated
06:42AM -21.2241 -44.0034 325° Northwest  Level Estimated
06:43AM -21.1636 -44.0493 325° Northwest  Level Estimated
06:44AM -21.1031 -44.0952 325° Northwest  Level Estimated
06:45AM -21.0425 -44.1410 325° Northwest  Level Estimated
06:46AM -20.9820 -44.1868 325° Northwest  Level Estimated
06:47AM -20.9215 -44.2326 325° Northwest  Level Estimated
06:48AM -20.8609 -44.2783 325° Northwest  Level Estimated
06:49AM -20.8003 -44.3240 325° Northwest  Level Estimated
06:50AM -20.7398 -44.3697 325° Northwest  Level Estimated
06:51AM -20.6792 -44.4153 325° Northwest  Level Estimated
06:51AM -19.6310 -44.8180 325° Northwest 448 516 36,000  Level FlightAware
06:52AM -19.5140 -44.8930 329° Northwest 449 517 36,000  Level FlightAware
06:52AM -19.4530 -44.9320 329° Northwest 448 516 36,000  Level FlightAware
06:53AM -19.3690 -44.9860 329° Northwest 448 516 36,000  Level FlightAware
06:54AM -19.2880 -45.0370 329° Northwest 448 516 36,000  Level FlightAware
06:54AM -19.2150 -45.0830 329° Northwest 447 514 36,000  Level FlightAware
06:55AM -19.1580 -45.1200 328° Northwest 447 514 36,000 -780 Level FlightAware
06:56AM -19.0820 -45.1670 330° Northwest 36,000 -780 Level FlightAware
06:58AM -18.9791 -45.2568 320° Northwest  Level Estimated
06:59AM -18.9219 -45.3067 320° Northwest  Level Estimated
07:00AM -18.8647 -45.3565 320° Northwest  Level Estimated
07:01AM -18.8076 -45.4063 321° Northwest  Level Estimated
07:02AM -18.7503 -45.4561 321° Northwest  Level Estimated
07:03AM -18.6931 -45.5058 321° Northwest  Level Estimated
07:04AM -18.6359 -45.5555 321° Northwest  Level Estimated
07:05AM -18.5786 -45.6051 321° Northwest  Level Estimated
07:06AM -18.5213 -45.6547 321° Northwest  Level Estimated
07:07AM -18.4641 -45.7043 321° Northwest  Level Estimated
07:08AM -18.4068 -45.7539 321° Northwest  Level Estimated
07:09AM -18.3494 -45.8034 321° Northwest  Level Estimated
07:10AM -18.2921 -45.8529 321° Northwest  Level Estimated
07:11AM -18.2348 -45.9023 321° Northwest  Level Estimated
07:12AM -18.1775 -45.9518 321° Northwest  Level Estimated
07:13AM -18.1201 -46.0011 321° Northwest  Level Estimated
07:14AM -18.0627 -46.0505 321° Northwest  Level Estimated
07:15AM -18.0053 -46.0998 321° Northwest  Level Estimated
07:16AM -17.9479 -46.1491 321° Northwest  Level Estimated
07:17AM -17.8905 -46.1984 321° Northwest  Level Estimated
07:18AM -17.8331 -46.2476 321° Northwest  Level Estimated
07:19AM -17.7757 -46.2968 321° Northwest  Level Estimated
07:20AM -17.7182 -46.3460 321° Northwest  Level Estimated
07:21AM -17.6608 -46.3951 321° Northwest  Level Estimated
07:22AM -17.6033 -46.4442 321° Northwest  Level Estimated
07:23AM -17.5458 -46.4933 321° Northwest  Level Estimated
07:24AM -17.4883 -46.5423 321° Northwest  Level Estimated
07:25AM -17.4308 -46.5913 321° Northwest  Level Estimated
07:26AM -17.3733 -46.6403 321° Northwest  Level Estimated
07:26AM -16.1340 -47.4960 321° Northwest 305 351 11,900  Level FlightAware
07:27AM -17.3158 -46.6893 321° Northwest  Level Estimated
07:27AM -16.0930 -47.5360 317° Northwest 279 321 11,000  Level FlightAware
07:28AM -16.0530 -47.5770 315° West 263 303 9,700 -1,620 Descending FlightAware
07:29AM -16.0190 -47.6200 309° West 245 282 8,500 -1,380 Descending FlightAware
07:29AM -15.9950 -47.6420 319° Northwest 238 274 7,900 -1,440 Descending FlightAware
07:30AM -15.9590 -47.6450 355° North 239 275 7,100 -1,140 Descending FlightAware
07:30AM -15.9320 -47.6460 358° North 224 258 6,900 -480 Descending FlightAware
07:30AM -15.9180 -47.6510 341° North 224 258 6,800 -600 Descending FlightAware
07:31AM -15.9080 -47.6630 311° West 225 259 6,600 -600 Descending FlightAware
07:31AM -15.9020 -47.6770 294° West 225 259 6,500 -360 Descending FlightAware
07:31AM -15.8950 -47.6970 290° West 222 255 6,400 -360 Descending FlightAware
07:32AM -15.8830 -47.7330 289° West 205 236 6,200 -600 Descending FlightAware
07:32AM -15.8780 -47.7480 289° West 204 235 5,900 -1,020 Descending FlightAware
07:33AM -15.8660 -47.7830 290° West 192 221 5,300 -840 Descending FlightAware
07:33AM -15.8590 -47.8020 291° West 180 207 5,000 -840 Descending FlightAware
07:33AM -15.8570 -47.8190 277° West 170 196 4,700 -960 Descending FlightAware
07:34AM -15.8580 -47.8400 267° West 166 191 4,300 -840 Descending FlightAware
07:34AM -15.8590 -47.8570 266° West 166 191 4,000 -840 Descending FlightAware
07:35AM -15.8600 -47.8760 267° West 166 191 3,700 -540 Descending FlightAware
07:35AM -15.8620 -47.9070 266° West 163 188 3,500 -300 Descending FlightAware